Flight Track Log - Related Links

Times and Time Zones

All times are in EDT time to prevent confusion due to time zone crossing. See the ASQ5941 flight status page for this flight to view local times or setup timezone preferences in your user account.

Time Position Orientation Groundspeed Altitude Reporting Facility
EDT Latitude Longitude Course Direction KTS MPH feet Rate Location/Type
Mon 05:34:42 PM 41.2608 -75.7997 222° Southwest 204 235 4,300  Level New York Center
Mon 05:35:43 PM 41.3075 -75.8281 335° Northwest 219 252 6,300 1,884 Climbing New York Center
Mon 05:36:00 PM 41.4321 -75.9484 315° West  Level FlightAware Approximate
Mon 05:36:43 PM 41.3717 -75.8411 351° North 219 252 8,100  Level New York Center
Mon 05:37:00 PM 41.4823 -76.0375 315° West  Level FlightAware Approximate
Mon 05:37:44 PM 41.4469 -75.8800 339° North 238 274 10,400  Level New York Center
Mon 05:38:00 PM 41.5401 -76.1185 312° West  Level FlightAware Approximate
Mon 05:38:42 PM 41.5081 -75.9097 340° North 262 302 10,900  Level New York Center
Mon 05:39:00 PM 41.5948 -76.2034 307° West  Level FlightAware Approximate
Mon 05:39:42 PM 41.6011 -75.9750 332° Northwest 304 350 12,700  Level New York Center
Mon 05:40:43 PM 41.6444 -76.0783 299° West 312 359 14,100 1,438 Climbing New York Center
Mon 05:41:43 PM 41.6747 -76.1892 290° West 312 359 15,600 1,416 Climbing New York Center
Mon 05:43:41 PM 41.7392 -76.4167 291° West 335 386 18,300 1,315 Climbing New York Center
Mon 05:44:41 PM 41.7731 -76.5364 291° West 335 386 19,500 1,240 Climbing New York Center
Mon 05:45:42 PM 41.8047 -76.6533 290° West 335 386 20,800 1,328 Climbing New York Center
Mon 05:46:43 PM 41.8383 -76.7758 290° West 340 391 22,200 1,300 Climbing New York Center
Mon 05:47:42 PM 41.8681 -76.8844 290° West 340 391 23,400 1,364 Climbing New York Center
Mon 05:48:33 PM 41.9022 -77.0036 291° West 342 394 24,700 1,405 Climbing Cleveland Center
Mon 05:49:33 PM 41.9350 -77.1244 290° West 342 394 26,000 1,300 Climbing Cleveland Center
Mon 05:50:33 PM 41.9678 -77.2428 290° West 342 394 27,300 1,050 Climbing Cleveland Center
Mon 05:51:33 PM 42.0025 -77.3669 291° West 347 399 28,100 850 Climbing Cleveland Center
Mon 05:52:33 PM 42.0331 -77.4911 288° West 347 399 29,000 950 Climbing Cleveland Center
Mon 05:53:33 PM 42.0678 -77.6181 290° West 347 399 30,000 1,050 Climbing Cleveland Center
Mon 05:54:33 PM 42.1022 -77.7425 290° West 352 405 31,100 950 Climbing Cleveland Center
Mon 05:55:33 PM 42.1275 -77.8450 288° West 357 411 31,900 900 Climbing Cleveland Center
Mon 05:56:33 PM 42.1642 -77.9864 289° West 362 417 32,900 1,000 Climbing Cleveland Center
Mon 05:57:33 PM 42.1983 -78.1139 290° West 362 417 33,900 1,000 Climbing Cleveland Center
Mon 05:58:33 PM 42.2300 -78.2417 289° West 362 417 34,900 900 Climbing Cleveland Center
Mon 05:59:33 PM 42.2639 -78.3667 290° West 362 417 35,700 550 Climbing Cleveland Center
Mon 06:00:33 PM 42.2953 -78.4947 288° West 362 417 36,000 150 Climbing Cleveland Center
Mon 06:01:33 PM 42.3289 -78.6283 289° West 367 422 36,000  Level Cleveland Center
Mon 06:02:33 PM 42.3647 -78.7678 289° West 378 435 36,000  Level Cleveland Center
Mon 06:03:33 PM 42.4003 -78.9131 288° West 396 456 36,000  Level Cleveland Center
Mon 06:04:33 PM 42.4378 -79.0667 288° West 408 470 36,000  Level Cleveland Center
Mon 06:05:33 PM 42.4750 -79.2122 289° West 414 476 36,000  Level Cleveland Center
Mon 06:06:33 PM 42.4997 -79.3694 282° West 419 482 36,000  Level Cleveland Center
Mon 06:07:33 PM 42.5033 -79.5242 272° West 419 482 36,000  Level Cleveland Center
Mon 06:08:33 PM 42.5108 -79.6819 274° West 424 488 36,000  Level Cleveland Center
Mon 06:09:33 PM 42.5225 -79.8450 276° West 424 488 36,000  Level Cleveland Center
Mon 06:10:33 PM 42.5256 -80.0253 271° West 424 488 36,000  Level Cleveland Center
Mon 06:11:33 PM 42.5325 -80.1886 273° West 435 501 36,000  Level Cleveland Center
Mon 06:12:33 PM 42.5392 -80.3464 273° West 435 501 36,000  Level Cleveland Center
Mon 06:13:33 PM 42.5456 -80.5072 273° West 435 501 36,000  Level Cleveland Center
Mon 06:14:33 PM 42.5519 -80.6706 273° West 435 501 36,000  Level Cleveland Center
Mon 06:15:33 PM 42.5600 -80.8311 274° West 435 501 36,000  Level Cleveland Center
Mon 06:16:33 PM 42.5617 -80.9722 271° West 430 495 36,000  Level Cleveland Center
Mon 06:17:33 PM 42.5694 -81.1300 274° West 430 495 36,000  Level Cleveland Center
Mon 06:18:33 PM 42.5747 -81.2825 273° West 419 482 36,000  Level Cleveland Center
Mon 06:19:33 PM 42.5819 -81.4375 274° West 414 476 36,000  Level Cleveland Center
Mon 06:20:33 PM 42.6058 -81.5789 283° West 402 463 36,000  Level Cleveland Center
Mon 06:21:33 PM 42.6317 -81.7261 283° West 402 463 36,000  Level Cleveland Center
Mon 06:22:33 PM 42.6572 -81.8847 282° West 392 451 36,000  Level Cleveland Center
Mon 06:23:33 PM 42.6844 -82.0292 284° West 397 457 36,000  Level Cleveland Center
Mon 06:24:33 PM 42.7075 -82.1767 282° West 392 451 36,000  Level Cleveland Center
Mon 06:25:33 PM 42.7328 -82.3186 284° West 392 451 36,000  Level Cleveland Center
Mon 06:26:33 PM 42.7556 -82.4581 283° West 392 451 36,000  Level Cleveland Center
Mon 06:27:33 PM 42.7697 -82.6053 278° West 392 451 36,000  Level Cleveland Center
Mon 06:28:33 PM 42.7794 -82.7528 275° West 392 451 36,000  Level Cleveland Center
Mon 06:29:33 PM 42.7889 -82.9061 275° West 398 458 36,000  Level Cleveland Center
Mon 06:30:33 PM 42.7961 -83.0592 274° West 408 470 36,000  Level Cleveland Center
Mon 06:31:33 PM 42.8075 -83.2153 276° West 408 470 36,000  Level Cleveland Center
Mon 06:32:33 PM 42.8167 -83.3514 275° West 414 476 36,000 -300 Level Cleveland Center
Mon 06:33:33 PM 42.8256 -83.4992 275° West 403 464 35,400 -800 Descending Cleveland Center
Mon 06:34:33 PM 42.8278 -83.6519 271° West 403 464 34,400 -1,000 Descending Cleveland Center
Mon 06:35:33 PM 42.8258 -83.8047 269° West 409 471 33,400 -1,000 Descending Cleveland Center
Mon 06:36:33 PM 42.8214 -83.9547 268° West 404 465 32,400 -950 Descending Cleveland Center
Mon 06:37:33 PM 42.8189 -84.1103 269° West 404 465 31,500 -950 Descending Cleveland Center
Mon 06:38:33 PM 42.8161 -84.2658 269° West 404 465 30,500 -750 Descending Cleveland Center
Mon 06:39:33 PM 42.8147 -84.4328 269° West 404 465 30,000 -250 Descending Cleveland Center
Mon 06:40:33 PM 42.8117 -84.5856 268° West 404 465 30,000  Level Cleveland Center
Mon 06:41:54 PM 42.8075 -84.7628 268° West 405 466 30,000  Level Chicago Center
Mon 06:42:56 PM 42.8022 -84.9486 268° West 410 472 30,000  Level Chicago Center
Mon 06:43:58 PM 42.7981 -85.1044 268° West 412 474 30,000  Level Chicago Center
Mon 06:45:00 PM 42.7933 -85.2614 268° West 414 476 30,000 -387 Level Chicago Center
Mon 06:46:02 PM 42.7889 -85.4197 268° West 417 480 29,200 -871 Descending Chicago Center
Mon 06:47:04 PM 42.8086 -85.5717 280° West 408 470 28,200 -1,016 Descending Chicago Center
Mon 06:48:06 PM 42.8375 -85.7197 285° West 405 466 27,100 -1,113 Descending Chicago Center
Mon 06:49:08 PM 42.8742 -85.9008 286° West 409 471 25,900 -1,113 Descending Chicago Center
Mon 06:50:10 PM 42.8983 -86.0561 282° West 416 479 24,800 -1,016 Descending Chicago Center
Mon 06:51:12 PM 42.8211 -86.1883 231° Southwest 475 547 23,800 -968 Descending Chicago Center
Mon 06:52:14 PM 42.6969 -86.2622 204° Southwest 494 568 22,800 -968 Descending Chicago Center
Mon 06:53:16 PM 42.6253 -86.3969 234° Southwest 455 524 21,800 -1,008 Descending Chicago Center
Mon 06:54:19 PM 42.6358 -86.5447 276° West 396 456 20,700 -912 Descending Chicago Center
Mon 06:55:21 PM 42.6500 -86.6922 277° West 392 451 19,900 -1,210 Descending Chicago Center
Mon 06:56:23 PM 42.6689 -86.8636 279° West 384 442 18,200 -1,258 Descending Chicago Center
Mon 06:57:25 PM 42.6911 -86.9797 285° West 327 376 17,300 -1,306 Descending Chicago Center
Mon 06:58:27 PM 42.6083 -87.0194 199° South 348 400 15,500 -2,129 Descending Chicago Center
Mon 06:59:29 PM 42.5197 -87.0292 185° South 324 373 12,900 -2,468 Descending Chicago Center
Mon 07:00:31 PM 42.4706 -87.1136 232° Southwest 289 333 10,400 -1,887 Descending Chicago Center
Mon 07:01:33 PM 42.4375 -87.2039 244° Southwest 273 314 9,000 -774 Descending Chicago Center
Mon 07:02:35 PM 42.3978 -87.3133 244° Southwest 271 312 8,800 -532 Descending Chicago Center
Mon 07:03:37 PM 42.3628 -87.3967 240° Southwest 272 313 7,900 -919 Descending Chicago Center
Mon 07:04:39 PM 42.3219 -87.4950 241° Southwest 263 303 6,900 -1,056 Descending Chicago Center
Mon 07:05:42 PM 42.2875 -87.5803 241° Southwest 251 289 5,700 -912 Descending Chicago Center
Mon 07:06:44 PM 42.2331 -87.6331 216° Southwest 241 277 5,000 -339 Descending Chicago Center
Mon 07:07:46 PM 42.1814 -87.6936 221° Southwest 246 283 5,000  Level Chicago Center

Login

Don't have an account? Register now (free) for customized features, flight alerts, and more!